sensor_id;sensor_type;location;lat;lon;timestamp;pressure;altitude;pressure_sealevel;temperature;humidity
49835;BME280;35729;52.090;13.162;2023-04-20T00:00:21;101471.50;;;4.96;100.00
49835;BME280;35729;52.090;13.162;2023-04-20T00:02:50;101468.00;;;4.95;100.00
49835;BME280;35729;52.090;13.162;2023-04-20T00:05:19;101468.00;;;4.95;100.00
49835;BME280;35729;52.090;13.162;2023-04-20T00:07:47;101469.75;;;4.95;100.00
49835;BME280;35729;52.090;13.162;2023-04-20T00:10:16;101465.41;;;4.95;100.00
49835;BME280;35729;52.090;13.162;2023-04-20T00:12:44;101469.75;;;4.95;100.00
49835;BME280;35729;52.090;13.162;2023-04-20T00:15:15;101467.16;;;4.95;100.00
49835;BME280;35729;52.090;13.162;2023-04-20T00:17:44;101461.09;;;4.94;100.00
49835;BME280;35729;52.090;13.162;2023-04-20T00:20:13;101464.56;;;4.95;100.00
49835;BME280;35729;52.090;13.162;2023-04-20T00:22:42;101469.78;;;4.96;100.00
49835;BME280;35729;52.090;13.162;2023-04-20T00:25:11;101455.06;;;4.97;100.00
49835;BME280;35729;52.090;13.162;2023-04-20T00:27:39;101460.28;;;4.98;100.00
49835;BME280;35729;52.090;13.162;2023-04-20T00:30:09;101460.28;;;5.00;100.00
49835;BME280;35729;52.090;13.162;2023-04-20T00:32:41;101457.69;;;5.00;100.00
49835;BME280;35729;52.090;13.162;2023-04-20T00:35:09;101458.53;;;4.99;100.00
49835;BME280;35729;52.090;13.162;2023-04-20T00:37:38;101458.53;;;4.99;100.00
49835;BME280;35729;52.090;13.162;2023-04-20T00:40:07;101455.94;;;4.99;100.00
49835;BME280;35729;52.090;13.162;2023-04-20T00:42:36;101457.66;;;4.98;100.00
49835;BME280;35729;52.090;13.162;2023-04-20T00:45:06;101457.63;;;4.95;100.00
49835;BME280;35729;52.090;13.162;2023-04-20T00:47:35;101450.69;;;4.94;100.00
49835;BME280;35729;52.090;13.162;2023-04-20T00:50:07;101451.53;;;4.92;100.00
49835;BME280;35729;52.090;13.162;2023-04-20T00:52:36;101458.44;;;4.91;100.00
49835;BME280;35729;52.090;13.162;2023-04-20T00:55:05;101461.94;;;4.92;100.00
49835;BME280;35729;52.090;13.162;2023-04-20T00:57:34;101459.28;;;4.90;100.00
49835;BME280;35729;52.090;13.162;2023-04-20T01:00:04;101451.47;;;4.90;100.00
49835;BME280;35729;52.090;13.162;2023-04-20T01:02:35;101453.22;;;4.89;100.00
49835;BME280;35729;52.090;13.162;2023-04-20T01:05:06;101457.53;;;4.89;100.00
49835;BME280;35729;52.090;13.162;2023-04-20T01:07:35;101451.47;;;4.87;100.00
49835;BME280;35729;52.090;13.162;2023-04-20T01:10:05;101449.72;;;4.86;100.00
49835;BME280;35729;52.090;13.162;2023-04-20T01:12:34;101452.31;;;4.86;100.00
49835;BME280;35729;52.090;13.162;2023-04-20T01:15:04;101452.31;;;4.86;100.00
49835;BME280;35729;52.090;13.162;2023-04-20T01:17:33;101449.72;;;4.86;100.00
49835;BME280;35729;52.090;13.162;2023-04-20T01:20:03;101453.16;;;4.86;100.00
49835;BME280;35729;52.090;13.162;2023-04-20T01:22:42;101447.09;;;4.86;100.00
49835;BME280;35729;52.090;13.162;2023-04-20T01:25:10;101442.75;;;4.86;100.00
49835;BME280;35729;52.090;13.162;2023-04-20T01:27:39;101446.25;;;4.85;100.00
49835;BME280;35729;52.090;13.162;2023-04-20T01:30:09;101438.41;;;4.84;100.00
49835;BME280;35729;52.090;13.162;2023-04-20T01:32:38;101441.88;;;4.83;100.00
49835;BME280;35729;52.090;13.162;2023-04-20T01:35:07;101437.53;;;4.82;100.00
49835;BME280;35729;52.090;13.162;2023-04-20T01:37:39;101442.72;;;4.80;100.00
49835;BME280;35729;52.090;13.162;2023-04-20T01:40:08;101440.97;;;4.79;100.00
49835;BME280;35729;52.090;13.162;2023-04-20T01:42:37;101438.34;;;4.79;100.00
49835;BME280;35729;52.090;13.162;2023-04-20T01:45:07;101444.38;;;4.77;100.00
49835;BME280;35729;52.090;13.162;2023-04-20T01:47:35;101449.53;;;4.75;100.00
49835;BME280;35729;52.090;13.162;2023-04-20T01:50:05;101443.47;;;4.71;100.00
49835;BME280;35729;52.090;13.162;2023-04-20T01:52:33;101446.00;;;4.68;100.00
49835;BME280;35729;52.090;13.162;2023-04-20T01:55:05;101448.56;;;4.65;100.00
49835;BME280;35729;52.090;13.162;2023-04-20T01:57:34;101440.69;;;4.59;100.00
49835;BME280;35729;52.090;13.162;2023-04-20T02:00:04;101441.53;;;4.60;100.00
49835;BME280;35729;52.090;13.162;2023-04-20T02:02:32;101445.88;;;4.57;100.00
49835;BME280;35729;52.090;13.162;2023-04-20T02:05:01;101446.69;;;4.55;100.00
49835;BME280;35729;52.090;13.162;2023-04-20T02:07:30;101450.97;;;4.51;100.00
49835;BME280;35729;52.090;13.162;2023-04-20T02:09:58;101435.31;;;4.47;100.00
49835;BME280;35729;52.090;13.162;2023-04-20T02:12:29;101438.72;;;4.43;100.00
49835;BME280;35729;52.090;13.162;2023-04-20T02:14:58;101435.19;;;4.39;100.00
49835;BME280;35729;52.090;13.162;2023-04-20T02:17:26;101437.72;;;4.34;100.00
49835;BME280;35729;52.090;13.162;2023-04-20T02:19:57;101444.63;;;4.32;100.00
49835;BME280;35729;52.090;13.162;2023-04-20T02:22:25;101446.31;;;4.30;100.00
49835;BME280;35729;52.090;13.162;2023-04-20T02:24:54;101448.00;;;4.28;100.00
49835;BME280;35729;52.090;13.162;2023-04-20T02:27:22;101442.75;;;4.23;100.00
49835;BME280;35729;52.090;13.162;2023-04-20T02:29:53;101448.78;;;4.21;100.00
49835;BME280;35729;52.090;13.162;2023-04-20T02:32:22;101448.72;;;4.18;100.00
49835;BME280;35729;52.090;13.162;2023-04-20T02:34:50;101446.94;;;4.14;100.00
49835;BME280;35729;52.090;13.162;2023-04-20T02:37:19;101447.75;;;4.10;100.00
49835;BME280;35729;52.090;13.162;2023-04-20T02:39:47;101450.25;;;4.06;100.00
49835;BME280;35729;52.090;13.162;2023-04-20T02:42:16;101448.50;;;4.04;100.00
49835;BME280;35729;52.090;13.162;2023-04-20T02:44:44;101453.66;;;4.02;100.00
49835;BME280;35729;52.090;13.162;2023-04-20T02:47:15;101446.72;;;4.00;100.00
49835;BME280;35729;52.090;13.162;2023-04-20T02:49:43;101448.38;;;3.98;100.00
49835;BME280;35729;52.090;13.162;2023-04-20T02:52:12;101451.81;;;3.97;100.00
49835;BME280;35729;52.090;13.162;2023-04-20T02:54:40;101449.22;;;3.95;100.00
49835;BME280;35729;52.090;13.162;2023-04-20T02:57:09;101457.84;;;3.94;100.00
49835;BME280;35729;52.090;13.162;2023-04-20T02:59:38;101454.38;;;3.92;100.00
49835;BME280;35729;52.090;13.162;2023-04-20T03:02:06;101463.00;;;3.91;100.00
49835;BME280;35729;52.090;13.162;2023-04-20T03:04:37;101465.56;;;3.89;100.00
49835;BME280;35729;52.090;13.162;2023-04-20T03:07:06;101469.06;;;3.91;100.00
49835;BME280;35729;52.090;13.162;2023-04-20T03:09:34;101462.16;;;3.92;100.00
49835;BME280;35729;52.090;13.162;2023-04-20T03:12:04;101463.00;;;3.92;100.00
49835;BME280;35729;52.090;13.162;2023-04-20T03:14:32;101462.19;;;3.94;100.00
49835;BME280;35729;52.090;13.162;2023-04-20T03:17:01;101461.34;;;3.95;100.00
49835;BME280;35729;52.090;13.162;2023-04-20T03:19:29;101462.19;;;3.95;100.00
49835;BME280;35729;52.090;13.162;2023-04-20T03:22:00;101449.22;;;3.95;100.00
49835;BME280;35729;52.090;13.162;2023-04-20T03:24:28;101454.41;;;3.95;100.00
49835;BME280;35729;52.090;13.162;2023-04-20T03:26:57;101460.50;;;3.97;100.00
49835;BME280;35729;52.090;13.162;2023-04-20T03:29:25;101463.09;;;3.97;100.00
49835;BME280;35729;52.090;13.162;2023-04-20T03:31:54;101462.25;;;3.98;100.00
49835;BME280;35729;52.090;13.162;2023-04-20T03:34:22;101460.50;;;3.97;100.00
49835;BME280;35729;52.090;13.162;2023-04-20T03:36:51;101454.47;;;3.98;100.00
49835;BME280;35729;52.090;13.162;2023-04-20T03:39:22;101464.88;;;3.98;100.00
49835;BME280;35729;52.090;13.162;2023-04-20T03:41:51;101467.41;;;3.97;100.00
49835;BME280;35729;52.090;13.162;2023-04-20T03:44:19;101469.97;;;3.95;100.00
49835;BME280;35729;52.090;13.162;2023-04-20T03:46:48;101470.81;;;3.94;100.00
49835;BME280;35729;52.090;13.162;2023-04-20T03:49:16;101467.38;;;3.94;100.00
49835;BME280;35729;52.090;13.162;2023-04-20T03:51:44;101469.06;;;3.91;100.00
49835;BME280;35729;52.090;13.162;2023-04-20T03:54:13;101470.81;;;3.92;100.00
49835;BME280;35729;52.090;13.162;2023-04-20T03:56:44;101478.59;;;3.92;100.00
49835;BME280;35729;52.090;13.162;2023-04-20T03:59:14;101472.53;;;3.92;100.00
49835;BME280;35729;52.090;13.162;2023-04-20T04:01:42;101473.47;;;3.96;100.00
49835;BME280;35729;52.090;13.162;2023-04-20T04:04:11;101485.63;;;3.98;100.00
49835;BME280;35729;52.090;13.162;2023-04-20T04:06:39;101490.00;;;4.01;100.00
49835;BME280;35729;52.090;13.162;2023-04-20T04:09:07;101496.06;;;4.01;100.00
49835;BME280;35729;52.090;13.162;2023-04-20T04:11:45;101493.47;;;4.01;100.00
49835;BME280;35729;52.090;13.162;2023-04-20T04:14:14;101490.03;;;4.02;100.00
49835;BME280;35729;52.090;13.162;2023-04-20T04:16:42;101491.78;;;4.03;100.00
49835;BME280;35729;52.090;13.162;2023-04-20T04:19:10;101496.97;;;4.03;100.00
49835;BME280;35729;52.090;13.162;2023-04-20T04:21:39;101492.63;;;4.02;100.00
49835;BME280;35729;52.090;13.162;2023-04-20T04:24:08;101495.22;;;4.02;100.00
49835;BME280;35729;52.090;13.162;2023-04-20T04:26:37;101500.41;;;4.02;100.00
49835;BME280;35729;52.090;13.162;2023-04-20T04:29:09;101501.22;;;4.00;100.00
49835;BME280;35729;52.090;13.162;2023-04-20T04:31:37;101502.91;;;3.98;100.00
49835;BME280;35729;52.090;13.162;2023-04-20T04:34:12;101509.84;;;3.97;100.00
49835;BME280;35729;52.090;13.162;2023-04-20T04:36:42;101505.47;;;3.95;100.00
49835;BME280;35729;52.090;13.162;2023-04-20T04:39:11;101495.00;;;3.90;100.00
49835;BME280;35729;52.090;13.162;2023-04-20T04:41:39;101493.22;;;3.87;100.00
49835;BME280;35729;52.090;13.162;2023-04-20T04:44:10;101497.47;;;3.84;100.00
49835;BME280;35729;52.090;13.162;2023-04-20T04:46:40;101512.16;;;3.82;100.00
49835;BME280;35729;52.090;13.162;2023-04-20T04:49:11;101519.88;;;3.79;100.00
49835;BME280;35729;52.090;13.162;2023-04-20T04:51:40;101516.34;;;3.75;100.00
49835;BME280;35729;52.090;13.162;2023-04-20T04:54:08;101510.22;;;3.71;100.00
49835;BME280;35729;52.090;13.162;2023-04-20T04:56:37;101513.69;;;3.70;100.00
49835;BME280;35729;52.090;13.162;2023-04-20T04:59:05;101518.00;;;3.70;100.00
49835;BME280;35729;52.090;13.162;2023-04-20T05:01:36;101521.41;;;3.69;100.00
49835;BME280;35729;52.090;13.162;2023-04-20T05:04:04;101521.41;;;3.69;100.00
49835;BME280;35729;52.090;13.162;2023-04-20T05:06:33;101524.88;;;3.68;100.00
49835;BME280;35729;52.090;13.162;2023-04-20T05:09:01;101516.19;;;3.66;100.00
49835;BME280;35729;52.090;13.162;2023-04-20T05:11:30;101510.97;;;3.64;100.00
49835;BME280;35729;52.090;13.162;2023-04-20T05:13:59;101516.16;;;3.64;100.00
49835;BME280;35729;52.090;13.162;2023-04-20T05:16:28;101518.69;;;3.61;100.00
49835;BME280;35729;52.090;13.162;2023-04-20T05:18:59;101520.41;;;3.61;100.00
49835;BME280;35729;52.090;13.162;2023-04-20T05:21:27;101529.00;;;3.58;100.00
49835;BME280;35729;52.090;13.162;2023-04-20T05:23:57;101530.69;;;3.56;100.00
49835;BME280;35729;52.090;13.162;2023-04-20T05:26:25;101529.00;;;3.56;100.00
49835;BME280;35729;52.090;13.162;2023-04-20T05:28:54;101538.56;;;3.59;100.00
49835;BME280;35729;52.090;13.162;2023-04-20T05:31:22;101541.19;;;3.61;100.00
49835;BME280;35729;52.090;13.162;2023-04-20T05:33:51;101544.63;;;3.61;100.00
49835;BME280;35729;52.090;13.162;2023-04-20T05:36:22;101546.38;;;3.62;100.00
49835;BME280;35729;52.090;13.162;2023-04-20T05:38:50;101536.94;;;3.64;100.00
49835;BME280;35729;52.090;13.162;2023-04-20T05:41:19;101547.34;;;3.66;100.00
49835;BME280;35729;52.090;13.162;2023-04-20T05:43:51;101554.28;;;3.67;100.00
49835;BME280;35729;52.090;13.162;2023-04-20T05:46:20;101549.09;;;3.67;100.00
49835;BME280;35729;52.090;13.162;2023-04-20T05:48:48;101558.56;;;3.66;100.00
49835;BME280;35729;52.090;13.162;2023-04-20T05:51:17;101561.97;;;3.64;100.00
49835;BME280;35729;52.090;13.162;2023-04-20T05:53:49;101564.56;;;3.62;100.00
49835;BME280;35729;52.090;13.162;2023-04-20T05:56:17;101566.31;;;3.63;100.00
49835;BME280;35729;52.090;13.162;2023-04-20T05:58:46;101555.09;;;3.64;100.00
49835;BME280;35729;52.090;13.162;2023-04-20T06:01:15;101555.13;;;3.67;100.00
49835;BME280;35729;52.090;13.162;2023-04-20T06:03:43;101548.19;;;3.66;100.00
49835;BME280;35729;52.090;13.162;2023-04-20T06:06:13;101560.31;;;3.67;100.00
49835;BME280;35729;52.090;13.162;2023-04-20T06:08:41;101558.63;;;3.68;100.00
49835;BME280;35729;52.090;13.162;2023-04-20T06:11:12;101545.69;;;3.69;100.00
49835;BME280;35729;52.090;13.162;2023-04-20T06:13:41;101551.81;;;3.74;100.00
49835;BME280;35729;52.090;13.162;2023-04-20T06:16:09;101547.53;;;3.77;100.00
49835;BME280;35729;52.090;13.162;2023-04-20T06:18:38;101558.09;;;3.86;100.00
49835;BME280;35729;52.090;13.162;2023-04-20T06:21:08;101559.09;;;3.94;100.00
49835;BME280;35729;52.090;13.162;2023-04-20T06:23:37;101561.81;;;4.00;100.00
49835;BME280;35729;52.090;13.162;2023-04-20T06:26:05;101550.69;;;4.06;100.00
49835;BME280;35729;52.090;13.162;2023-04-20T06:28:37;101549.91;;;4.13;100.00
49835;BME280;35729;52.090;13.162;2023-04-20T06:31:06;101549.16;;;4.17;100.00
49835;BME280;35729;52.090;13.162;2023-04-20T06:33:41;101546.63;;;4.22;100.00
49835;BME280;35729;52.090;13.162;2023-04-20T06:36:09;101557.06;;;4.25;100.00
49835;BME280;35729;52.090;13.162;2023-04-20T06:38:38;101552.81;;;4.29;100.00
49835;BME280;35729;52.090;13.162;2023-04-20T06:41:06;101555.44;;;4.32;100.00
49835;BME280;35729;52.090;13.162;2023-04-20T06:43:37;101557.22;;;4.33;100.00
49835;BME280;35729;52.090;13.162;2023-04-20T06:46:06;101559.81;;;4.33;100.00
49835;BME280;35729;52.090;13.162;2023-04-20T06:48:35;101559.81;;;4.33;100.00
49835;BME280;35729;52.090;13.162;2023-04-20T06:51:03;101556.34;;;4.32;100.00
49835;BME280;35729;52.090;13.162;2023-04-20T06:53:32;101552.00;;;4.33;100.00
49835;BME280;35729;52.090;13.162;2023-04-20T06:56:00;101551.16;;;4.32;100.00
49835;BME280;35729;52.090;13.162;2023-04-20T06:58:29;101550.25;;;4.32;100.00
49835;BME280;35729;52.090;13.162;2023-04-20T07:01:00;101565.84;;;4.33;100.00
49835;BME280;35729;52.090;13.162;2023-04-20T07:03:29;101564.16;;;4.34;100.00
49835;BME280;35729;52.090;13.162;2023-04-20T07:05:58;101553.81;;;4.38;100.00
49835;BME280;35729;52.090;13.162;2023-04-20T07:08:26;101560.84;;;4.43;100.00
49835;BME280;35729;52.090;13.162;2023-04-20T07:10:55;101554.84;;;4.48;100.00
49835;BME280;35729;52.090;13.162;2023-04-20T07:13:23;101554.97;;;4.54;100.00
49835;BME280;35729;52.090;13.162;2023-04-20T07:15:52;101563.69;;;4.60;100.00
49835;BME280;35729;52.090;13.162;2023-04-20T07:18:23;101575.03;;;4.63;100.00
49835;BME280;35729;52.090;13.162;2023-04-20T07:20:53;101568.19;;;4.68;100.00
49835;BME280;35729;52.090;13.162;2023-04-20T07:23:21;101566.47;;;4.70;100.00
49835;BME280;35729;52.090;13.162;2023-04-20T07:25:51;101569.19;;;4.78;99.34
49835;BME280;35729;52.090;13.162;2023-04-20T07:28:19;101575.38;;;4.86;99.90
49835;BME280;35729;52.090;13.162;2023-04-20T07:30:48;101584.16;;;4.93;100.00
49835;BME280;35729;52.090;13.162;2023-04-20T07:33:16;101584.22;;;4.98;100.00
49835;BME280;35729;52.090;13.162;2023-04-20T07:35:48;101584.31;;;5.04;100.00
49835;BME280;35729;52.090;13.162;2023-04-20T07:38:16;101590.44;;;5.09;99.54
49835;BME280;35729;52.090;13.162;2023-04-20T07:40:44;101589.69;;;5.15;99.01
49835;BME280;35729;52.090;13.162;2023-04-20T07:43:13;101591.47;;;5.19;99.20
49835;BME280;35729;52.090;13.162;2023-04-20T07:45:41;101597.63;;;5.26;99.26
49835;BME280;35729;52.090;13.162;2023-04-20T07:48:10;101584.69;;;5.30;98.16
49835;BME280;35729;52.090;13.162;2023-04-20T07:50:39;101574.34;;;5.36;98.39
49835;BME280;35729;52.090;13.162;2023-04-20T07:53:10;101576.13;;;5.41;97.34
49835;BME280;35729;52.090;13.162;2023-04-20T07:55:38;101576.19;;;5.44;97.12
49835;BME280;35729;52.090;13.162;2023-04-20T07:58:07;101578.81;;;5.47;96.97
49835;BME280;35729;52.090;13.162;2023-04-20T08:00:36;101578.88;;;5.51;97.29
49835;BME280;35729;52.090;13.162;2023-04-20T08:03:04;101586.75;;;5.56;97.39
49835;BME280;35729;52.090;13.162;2023-04-20T08:05:33;101592.00;;;5.59;96.41
49835;BME280;35729;52.090;13.162;2023-04-20T08:08:01;101595.50;;;5.61;97.51
49835;BME280;35729;52.090;13.162;2023-04-20T08:10:32;101598.97;;;5.63;96.97
49835;BME280;35729;52.090;13.162;2023-04-20T08:13:01;101598.19;;;5.67;96.98
49835;BME280;35729;52.090;13.162;2023-04-20T08:15:30;101602.56;;;5.70;97.52
49835;BME280;35729;52.090;13.162;2023-04-20T08:17:58;101608.66;;;5.74;96.55
49835;BME280;35729;52.090;13.162;2023-04-20T08:20:27;101607.00;;;5.79;96.62
49835;BME280;35729;52.090;13.162;2023-04-20T08:22:55;101605.31;;;5.84;96.20
49835;BME280;35729;52.090;13.162;2023-04-20T08:25:23;101604.50;;;5.88;95.83
49835;BME280;35729;52.090;13.162;2023-04-20T08:27:54;101597.59;;;5.92;96.29
49835;BME280;35729;52.090;13.162;2023-04-20T08:30:23;101603.72;;;5.97;96.09
49835;BME280;35729;52.090;13.162;2023-04-20T08:32:51;101601.22;;;6.03;96.27
49835;BME280;35729;52.090;13.162;2023-04-20T08:35:20;101597.78;;;6.09;96.29
49835;BME280;35729;52.090;13.162;2023-04-20T08:37:48;101597.84;;;6.13;95.61
49835;BME280;35729;52.090;13.162;2023-04-20T08:40:17;101596.16;;;6.18;94.94
49835;BME280;35729;52.090;13.162;2023-04-20T08:42:46;101603.16;;;6.24;94.84
49835;BME280;35729;52.090;13.162;2023-04-20T08:45:17;101594.53;;;6.30;94.97
49835;BME280;35729;52.090;13.162;2023-04-20T08:47:45;101592.84;;;6.33;94.57
49835;BME280;35729;52.090;13.162;2023-04-20T08:50:15;101593.75;;;6.37;93.81
49835;BME280;35729;52.090;13.162;2023-04-20T08:52:43;101598.13;;;6.43;93.96
49835;BME280;35729;52.090;13.162;2023-04-20T08:55:14;101594.72;;;6.50;93.48
49835;BME280;35729;52.090;13.162;2023-04-20T08:57:43;101597.41;;;6.58;93.59
49835;BME280;35729;52.090;13.162;2023-04-20T09:00:13;101599.16;;;6.63;93.12
49835;BME280;35729;52.090;13.162;2023-04-20T09:02:52;101606.22;;;6.74;92.17
49835;BME280;35729;52.090;13.162;2023-04-20T09:05:26;101601.91;;;6.79;92.54
49835;BME280;35729;52.090;13.162;2023-04-20T09:07:56;101593.28;;;6.88;92.30
49835;BME280;35729;52.090;13.162;2023-04-20T09:10:37;101597.69;;;6.96;91.73
49835;BME280;35729;52.090;13.162;2023-04-20T09:13:06;101596.84;;;7.04;92.00
49835;BME280;35729;52.090;13.162;2023-04-20T09:15:35;101596.91;;;7.11;91.95
49835;BME280;35729;52.090;13.162;2023-04-20T09:18:13;101607.41;;;7.22;91.53
49835;BME280;35729;52.090;13.162;2023-04-20T09:20:43;101610.97;;;7.30;89.58
49835;BME280;35729;52.090;13.162;2023-04-20T09:23:12;101610.09;;;7.36;90.49
49835;BME280;35729;52.090;13.162;2023-04-20T09:25:41;101608.41;;;7.40;90.12
49835;BME280;35729;52.090;13.162;2023-04-20T09:28:11;101603.19;;;7.43;90.54
49835;BME280;35729;52.090;13.162;2023-04-20T09:30:41;101599.72;;;7.44;89.67
49835;BME280;35729;52.090;13.162;2023-04-20T09:33:13;101608.44;;;7.44;89.53
49835;BME280;35729;52.090;13.162;2023-04-20T09:35:44;101610.16;;;7.45;89.81
49835;BME280;35729;52.090;13.162;2023-04-20T09:38:15;101611.03;;;7.46;89.34
49835;BME280;35729;52.090;13.162;2023-04-20T09:40:43;101606.69;;;7.45;89.57
49835;BME280;35729;52.090;13.162;2023-04-20T09:43:17;101607.53;;;7.42;89.41
49835;BME280;35729;52.090;13.162;2023-04-20T09:45:45;101605.78;;;7.40;89.38
49835;BME280;35729;52.090;13.162;2023-04-20T09:48:17;101612.72;;;7.39;90.22
49835;BME280;35729;52.090;13.162;2023-04-20T09:50:46;101613.63;;;7.40;89.96
49835;BME280;35729;52.090;13.162;2023-04-20T09:53:16;101610.13;;;7.39;90.20
49835;BME280;35729;52.090;13.162;2023-04-20T09:55:45;101618.84;;;7.40;90.13
49835;BME280;35729;52.090;13.162;2023-04-20T09:58:17;101628.38;;;7.39;90.83
49835;BME280;35729;52.090;13.162;2023-04-20T10:00:45;101628.38;;;7.39;90.57
49835;BME280;35729;52.090;13.162;2023-04-20T10:03:18;101622.31;;;7.36;90.44
49835;BME280;35729;52.090;13.162;2023-04-20T10:05:47;101631.84;;;7.37;91.27
49835;BME280;35729;52.090;13.162;2023-04-20T10:08:20;101637.06;;;7.37;91.35
49835;BME280;35729;52.090;13.162;2023-04-20T10:10:49;101631.00;;;7.36;91.68
49835;BME280;35729;52.090;13.162;2023-04-20T10:13:17;101639.69;;;7.37;91.82
49835;BME280;35729;52.090;13.162;2023-04-20T10:15:47;101637.06;;;7.37;92.19
49835;BME280;35729;52.090;13.162;2023-04-20T10:18:22;101634.50;;;7.40;92.15
49835;BME280;35729;52.090;13.162;2023-04-20T10:21:03;101629.28;;;7.40;92.31
49835;BME280;35729;52.090;13.162;2023-04-20T10:23:33;101623.19;;;7.41;92.56
49835;BME280;35729;52.090;13.162;2023-04-20T10:26:02;101620.59;;;7.41;92.34
49835;BME280;35729;52.090;13.162;2023-04-20T10:28:40;101617.97;;;7.41;92.44
49835;BME280;35729;52.090;13.162;2023-04-20T10:31:10;101607.53;;;7.41;92.67
49835;BME280;35729;52.090;13.162;2023-04-20T10:33:54;101611.88;;;7.42;92.67
49835;BME280;35729;52.090;13.162;2023-04-20T10:36:23;101619.72;;;7.45;93.13
49835;BME280;35729;52.090;13.162;2023-04-20T10:38:52;101615.38;;;7.45;92.86
49835;BME280;35729;52.090;13.162;2023-04-20T10:41:21;101603.22;;;7.47;93.13
49835;BME280;35729;52.090;13.162;2023-04-20T10:43:49;101598.03;;;7.52;93.07
49835;BME280;35729;52.090;13.162;2023-04-20T10:46:19;101597.16;;;7.56;93.35
49835;BME280;35729;52.090;13.162;2023-04-20T10:48:55;101599.81;;;7.61;93.15
49835;BME280;35729;52.090;13.162;2023-04-20T10:51:24;101595.44;;;7.64;93.27
49835;BME280;35729;52.090;13.162;2023-04-20T10:54:00;101593.75;;;7.70;92.40
49835;BME280;35729;52.090;13.162;2023-04-20T10:56:36;101586.75;;;7.73;91.50
49835;BME280;35729;52.090;13.162;2023-04-20T10:59:08;101591.13;;;7.76;92.57
49835;BME280;35729;52.090;13.162;2023-04-20T11:01:37;101585.03;;;7.78;92.43
49835;BME280;35729;52.090;13.162;2023-04-20T11:04:08;101585.94;;;7.79;92.26
49835;BME280;35729;52.090;13.162;2023-04-20T11:06:38;101576.38;;;7.81;91.28
49835;BME280;35729;52.090;13.162;2023-04-20T11:09:20;101574.63;;;7.81;91.91
49835;BME280;35729;52.090;13.162;2023-04-20T11:11:57;101569.41;;;7.86;92.05
49835;BME280;35729;52.090;13.162;2023-04-20T11:14:27;101563.31;;;7.92;91.81
49835;BME280;35729;52.090;13.162;2023-04-20T11:16:56;101562.47;;;7.97;91.52
49835;BME280;35729;52.090;13.162;2023-04-20T11:19:28;101551.13;;;8.05;92.00
49835;BME280;35729;52.090;13.162;2023-04-20T11:21:57;101546.81;;;8.13;91.47
49835;BME280;35729;52.090;13.162;2023-04-20T11:24:27;101544.22;;;8.19;92.02
49835;BME280;35729;52.090;13.162;2023-04-20T11:26:57;101544.22;;;8.25;91.07
49835;BME280;35729;52.090;13.162;2023-04-20T11:29:30;101539.84;;;8.27;89.52
49835;BME280;35729;52.090;13.162;2023-04-20T11:32:00;101539.00;;;8.31;90.35
49835;BME280;35729;52.090;13.162;2023-04-20T11:34:31;101537.22;;;8.35;90.82
49835;BME280;35729;52.090;13.162;2023-04-20T11:37:03;101538.97;;;8.42;91.40
49835;BME280;35729;52.090;13.162;2023-04-20T11:39:32;101535.53;;;8.50;90.76
49835;BME280;35729;52.090;13.162;2023-04-20T11:42:00;101542.50;;;8.55;90.83
49835;BME280;35729;52.090;13.162;2023-04-20T11:44:29;101541.63;;;8.59;90.64
49835;BME280;35729;52.090;13.162;2023-04-20T11:46:58;101544.22;;;8.64;90.60
49835;BME280;35729;52.090;13.162;2023-04-20T11:49:30;101540.75;;;8.70;90.88
49835;BME280;35729;52.090;13.162;2023-04-20T11:51:59;101530.28;;;8.77;90.83
49835;BME280;35729;52.090;13.162;2023-04-20T11:54:27;101527.63;;;8.85;90.93
49835;BME280;35729;52.090;13.162;2023-04-20T11:56:58;101530.25;;;8.91;90.72
49835;BME280;35729;52.090;13.162;2023-04-20T11:59:27;101522.34;;;9.01;90.82
49835;BME280;35729;52.090;13.162;2023-04-20T12:02:02;101517.97;;;9.09;90.73
49835;BME280;35729;52.090;13.162;2023-04-20T12:04:33;101513.59;;;9.20;90.49
49835;BME280;35729;52.090;13.162;2023-04-20T12:07:02;101520.50;;;9.34;90.45
49835;BME280;35729;52.090;13.162;2023-04-20T12:09:31;101523.94;;;9.48;88.32
49835;BME280;35729;52.090;13.162;2023-04-20T12:12:01;101521.25;;;9.59;89.13
49835;BME280;35729;52.090;13.162;2023-04-20T12:14:30;101524.69;;;9.69;89.04
49835;BME280;35729;52.090;13.162;2023-04-20T12:17:01;101516.81;;;9.75;87.60
49835;BME280;35729;52.090;13.162;2023-04-20T12:19:30;101518.50;;;9.84;88.04
49835;BME280;35729;52.090;13.162;2023-04-20T12:22:01;101517.59;;;9.91;86.88
49835;BME280;35729;52.090;13.162;2023-04-20T12:24:29;101510.50;;;10.05;88.07
49835;BME280;35729;52.090;13.162;2023-04-20T12:26:58;101499.88;;;10.21;87.81
49835;BME280;35729;52.090;13.162;2023-04-20T12:29:28;101505.03;;;10.38;86.63
49835;BME280;35729;52.090;13.162;2023-04-20T12:31:57;101502.31;;;10.47;86.47
49835;BME280;35729;52.090;13.162;2023-04-20T12:34:26;101500.47;;;10.58;86.68
49835;BME280;35729;52.090;13.162;2023-04-20T12:36:54;101503.88;;;10.67;85.30
49835;BME280;35729;52.090;13.162;2023-04-20T12:39:25;101500.34;;;10.71;85.01
49835;BME280;35729;52.090;13.162;2023-04-20T12:41:53;101497.72;;;10.71;85.07
49835;BME280;35729;52.090;13.162;2023-04-20T12:44:22;101502.16;;;10.66;82.44
49835;BME280;35729;52.090;13.162;2023-04-20T12:46:50;101498.69;;;10.61;83.64
49835;BME280;35729;52.090;13.162;2023-04-20T12:49:19;101499.63;;;10.56;84.29
49835;BME280;35729;52.090;13.162;2023-04-20T12:51:47;101497.00;;;10.56;84.82
49835;BME280;35729;52.090;13.162;2023-04-20T12:54:16;101491.72;;;10.59;84.94